createdAt,value
2018-02-13T00:00:14.526Z,99899.57
2018-02-13T00:02:42.087Z,99900.17
2018-02-13T00:05:09.626Z,99902.07
2018-02-13T00:07:37.251Z,99907.31
2018-02-13T00:10:04.871Z,99906.92
2018-02-13T00:12:32.554Z,99897.27
2018-02-13T00:15:00.191Z,99898.17
2018-02-13T00:17:27.806Z,99898.47
2018-02-13T00:19:55.370Z,99895.73
2018-02-13T00:22:23.001Z,99884.88
2018-02-13T00:24:50.626Z,99896.77
2018-02-13T00:27:18.186Z,99896.19
2018-02-13T00:29:45.785Z,99896.61
2018-02-13T00:32:13.410Z,99900.23
2018-02-13T00:34:41.027Z,99907.80
2018-02-13T00:37:08.710Z,99900.32
2018-02-13T00:39:36.270Z,99892.98
2018-02-13T00:42:03.876Z,99893.26
2018-02-13T00:44:31.438Z,99892.23
2018-02-13T00:46:59.058Z,99894.63
2018-02-13T00:49:26.682Z,99899.33
2018-02-13T00:51:54.238Z,99899.60
2018-02-13T00:54:21.810Z,99898.39
2018-02-13T00:56:49.434Z,99898.88
2018-02-13T00:59:16.997Z,99901.34
2018-02-13T01:01:44.571Z,99900.40
2018-02-13T01:04:12.203Z,99901.14
2018-02-13T01:06:39.822Z,99895.48
2018-02-13T01:09:07.377Z,99896.81
2018-02-13T01:11:34.939Z,99896.13
2018-02-13T01:14:02.592Z,99894.84
2018-02-13T01:16:30.205Z,99899.91
2018-02-13T01:18:57.827Z,99907.44
2018-02-13T01:21:25.426Z,99899.36
2018-02-13T01:23:53.041Z,99904.02
2018-02-13T01:26:20.662Z,99907.09
2018-02-13T01:28:48.226Z,99905.72
2018-02-13T01:31:15.860Z,99914.30
2018-02-13T01:33:43.503Z,99905.59
2018-02-13T01:36:11.152Z,99909.14
2018-02-13T01:38:38.718Z,99913.52
2018-02-13T01:41:06.329Z,99905.81
2018-02-13T01:43:33.877Z,99911.89
2018-02-13T01:46:01.437Z,99906.52
2018-02-13T01:48:29.007Z,99909.67
2018-02-13T01:50:56.580Z,99913.46
2018-02-13T01:53:24.160Z,99911.78
2018-02-13T01:55:51.722Z,99918.09
2018-02-13T01:58:19.341Z,99914.16
2018-02-13T02:00:46.964Z,99922.55
2018-02-13T02:03:14.545Z,99927.84
2018-02-13T02:05:42.182Z,99928.49
2018-02-13T02:08:09.799Z,99926.13
2018-02-13T02:10:37.370Z,99925.41
2018-02-13T02:13:04.950Z,99924.95
2018-02-13T02:15:32.618Z,99919.83
2018-02-13T02:18:00.178Z,99917.39
2018-02-13T02:20:27.747Z,99918.23
2018-02-13T02:22:55.314Z,99919.83
2018-02-13T02:25:22.930Z,99920.86
2018-02-13T02:27:50.497Z,99923.63
2018-02-13T02:30:18.062Z,99925.08
2018-02-13T02:32:45.686Z,99921.09
2018-02-13T02:35:13.241Z,99921.52
2018-02-13T02:37:40.868Z,99926.34
2018-02-13T02:40:08.502Z,99917.84
2018-02-13T02:42:47.899Z,99919.83
2018-02-13T02:45:15.545Z,99916.78
2018-02-13T02:47:43.110Z,99915.53
2018-02-13T02:50:10.800Z,99919.89
2018-02-13T02:52:38.372Z,99920.32
2018-02-13T02:55:05.930Z,99922.02
2018-02-13T02:57:33.495Z,99915.02
2018-02-13T03:00:01.054Z,99922.38
2018-02-13T03:02:28.626Z,99919.95
2018-02-13T03:04:56.246Z,99918.13
2018-02-13T03:07:23.854Z,99921.17
2018-02-13T03:09:51.409Z,99922.72
2018-02-13T03:12:19.030Z,99930.19
2018-02-13T03:14:46.598Z,99933.73
2018-02-13T03:17:14.238Z,99940.41
2018-02-13T03:19:41.824Z,99935.39
2018-02-13T03:22:09.411Z,99938.61
2018-02-13T03:24:37.030Z,99941.63
2018-02-13T03:27:04.690Z,99936.22
2018-02-13T03:29:32.310Z,99932.27
2018-02-13T03:31:59.878Z,99938.55
2018-02-13T03:34:27.449Z,99935.66
2018-02-13T03:36:55.026Z,99933.77
2018-02-13T03:39:22.604Z,99938.11
2018-02-13T03:41:50.231Z,99930.55
2018-02-13T03:44:17.880Z,99935.79
2018-02-13T03:46:45.447Z,99938.44
2018-02-13T03:49:13.023Z,99933.41
2018-02-13T03:51:40.622Z,99941.47
2018-02-13T03:54:08.201Z,99948.71
2018-02-13T03:56:35.770Z,99948.27
2018-02-13T03:59:03.408Z,99944.34
2018-02-13T04:01:30.978Z,99941.24
2018-02-13T04:03:58.538Z,99944.02
2018-02-13T04:06:26.101Z,99945.89
2018-02-13T04:08:53.658Z,99945.49
2018-02-13T04:11:21.269Z,99940.36
2018-02-13T04:13:48.872Z,99938.95
2018-02-13T04:16:16.437Z,99945.63
2018-02-13T04:18:44.005Z,99942.45
2018-02-13T04:21:11.682Z,99939.87
2018-02-13T04:23:39.247Z,99945.91
2018-02-13T04:26:06.808Z,99945.69
2018-02-13T04:28:34.375Z,99940.57
2018-02-13T04:31:02.010Z,99937.38
2018-02-13T04:33:29.615Z,99951.64
2018-02-13T04:35:57.165Z,99954.52
2018-02-13T04:38:24.724Z,99953.09
2018-02-13T04:40:52.397Z,99952.84
2018-02-13T04:43:20.010Z,99954.92
2018-02-13T04:45:47.571Z,99956.72
2018-02-13T04:48:15.123Z,99953.60
2018-02-13T04:50:42.677Z,99954.33
2018-02-13T04:53:10.250Z,99953.88
2018-02-13T04:55:37.823Z,99952.67
2018-02-13T04:58:05.437Z,99950.61
2018-02-13T05:00:33.086Z,99947.77
2018-02-13T05:03:00.650Z,99946.13
2018-02-13T05:05:28.286Z,99947.41
2018-02-13T05:07:55.849Z,99939.37
2018-02-13T05:10:23.421Z,99941.91
2018-02-13T05:12:51.087Z,99942.45
2018-02-13T05:15:18.701Z,99942.38
2018-02-13T05:17:46.326Z,99942.81
2018-02-13T05:20:13.882Z,99944.03
2018-02-13T05:22:41.454Z,99950.52
2018-02-13T05:25:09.081Z,99945.61
2018-02-13T05:27:36.703Z,99945.52
2018-02-13T05:30:04.262Z,99955.41
2018-02-13T05:32:31.939Z,99952.02
2018-02-13T05:34:59.628Z,99942.17
2018-02-13T05:37:27.190Z,99953.33
2018-02-13T05:39:54.771Z,99946.50
2018-02-13T05:42:22.394Z,99944.86
2018-02-13T05:44:50.075Z,99940.22
2018-02-13T05:47:17.683Z,99935.23
2018-02-13T05:49:45.260Z,99939.29
2018-02-13T05:52:12.850Z,99932.06
2018-02-13T05:54:40.522Z,99935.50
2018-02-13T05:57:08.162Z,99941.89
2018-02-13T05:59:35.737Z,99941.10
2018-02-13T06:02:03.299Z,99948.91
2018-02-13T06:04:31.112Z,99948.80
2018-02-13T06:06:58.673Z,99957.84
2018-02-13T06:09:26.294Z,99958.27
2018-02-13T06:11:53.863Z,99949.73
2018-02-13T06:14:21.433Z,99942.22
2018-02-13T06:16:49.011Z,99930.86
2018-02-13T06:19:16.634Z,99932.98
2018-02-13T06:21:44.218Z,99938.47
2018-02-13T06:24:11.790Z,99930.95
2018-02-13T06:26:39.410Z,99925.48
2018-02-13T06:29:07.036Z,99929.89
2018-02-13T06:31:34.602Z,99931.97
2018-02-13T06:34:02.174Z,99939.41
2018-02-13T06:36:29.793Z,99950.15
2018-02-13T06:38:57.372Z,99960.47
2018-02-13T06:41:24.990Z,99950.38
2018-02-13T06:43:52.675Z,99946.17
2018-02-13T06:46:20.215Z,99950.45
2018-02-13T06:48:47.773Z,99946.70
2018-02-13T06:51:15.398Z,99946.11
2018-02-13T06:53:42.996Z,99952.44
2018-02-13T06:56:10.625Z,99958.56
2018-02-13T06:58:38.242Z,99953.81
2018-02-13T07:01:05.913Z,99955.91
2018-02-13T07:03:33.472Z,99958.62
2018-02-13T07:06:01.089Z,99953.23
2018-02-13T07:08:28.643Z,99946.28
2018-02-13T07:10:56.200Z,99939.84
2018-02-13T07:13:23.756Z,99944.61
2018-02-13T07:15:51.309Z,99936.91
2018-02-13T07:18:18.994Z,99935.98
2018-02-13T07:20:46.552Z,99943.14
2018-02-13T07:23:14.173Z,99934.73
2018-02-13T07:25:41.742Z,99936.77
2018-02-13T07:28:09.305Z,99936.95
2018-02-13T07:30:36.881Z,99929.78
2018-02-13T07:33:04.495Z,99927.89
2018-02-13T07:35:32.117Z,99935.03
2018-02-13T07:37:59.689Z,99931.65
2018-02-13T07:40:27.318Z,99938.42
2018-02-13T07:42:54.868Z,99936.84
2018-02-13T07:45:22.439Z,99938.49
2018-02-13T07:47:50.036Z,99933.89
2018-02-13T07:50:17.605Z,99934.78
2018-02-13T07:52:45.286Z,99945.17
2018-02-13T07:55:12.852Z,99933.64
2018-02-13T07:57:40.422Z,99923.93
2018-02-13T08:00:07.997Z,99925.51
2018-02-13T08:02:35.560Z,99923.09
2018-02-13T08:05:03.135Z,99932.65
2018-02-13T08:07:30.698Z,99926.53
2018-02-13T08:09:58.413Z,99923.53
2018-02-13T08:12:25.981Z,99922.38
2018-02-13T08:14:53.554Z,99932.00
2018-02-13T08:17:21.178Z,99924.15
2018-02-13T08:19:48.749Z,99914.78
2018-02-13T08:22:16.333Z,99909.16
2018-02-13T08:24:43.947Z,99894.95
2018-02-13T08:27:11.574Z,99891.59
2018-02-13T08:29:39.141Z,99901.14
2018-02-13T08:32:06.772Z,99907.80
2018-02-13T08:34:34.348Z,99897.72
2018-02-13T08:37:01.906Z,99912.63
2018-02-13T08:39:29.480Z,99911.94
2018-02-13T08:41:57.100Z,99915.96
2018-02-13T08:44:24.730Z,99914.72
2018-02-13T08:46:52.350Z,99916.99
2018-02-13T08:49:19.975Z,99921.34
2018-02-13T08:51:47.619Z,99918.58
2018-02-13T08:54:15.187Z,99921.75
2018-02-13T08:56:42.832Z,99914.62
2018-02-13T08:59:10.402Z,99917.91
2018-02-13T09:01:38.025Z,99917.12
2018-02-13T09:04:05.590Z,99914.40
2018-02-13T09:06:33.157Z,99917.13
2018-02-13T09:09:00.778Z,99904.94
2018-02-13T09:11:28.344Z,99910.77
2018-02-13T09:13:55.926Z,99913.34
2018-02-13T09:16:23.529Z,99908.42
2018-02-13T09:18:51.147Z,99910.59
2018-02-13T09:21:18.767Z,99913.33
2018-02-13T09:23:46.385Z,99913.30
2018-02-13T09:26:13.950Z,99909.03
2018-02-13T09:28:41.513Z,99910.62
2018-02-13T09:31:09.090Z,99900.36
2018-02-13T09:33:36.653Z,99895.66
2018-02-13T09:36:04.337Z,99888.28
2018-02-13T09:38:31.920Z,99876.94
2018-02-13T09:40:59.499Z,99871.59
2018-02-13T09:43:27.084Z,99873.95
2018-02-13T09:45:54.654Z,99871.03
2018-02-13T09:48:22.291Z,99870.27
2018-02-13T09:50:49.854Z,99859.39
2018-02-13T09:53:17.490Z,99853.38
2018-02-13T09:55:45.058Z,99854.88
2018-02-13T09:58:12.684Z,99845.39
2018-02-13T10:00:40.258Z,99833.47
2018-02-13T10:03:07.882Z,99832.08
2018-02-13T10:05:35.455Z,99823.32
2018-02-13T10:08:03.074Z,99819.69
2018-02-13T10:10:31.630Z,99808.08
2018-02-13T10:12:59.245Z,99795.67
2018-02-13T10:15:26.921Z,99796.72
2018-02-13T10:17:54.598Z,99795.02
2018-02-13T10:20:22.273Z,99795.13
2018-02-13T10:22:49.889Z,99783.69
2018-02-13T10:25:17.544Z,99783.88
2018-02-13T10:27:45.171Z,99780.39
2018-02-13T10:30:12.802Z,99772.89
2018-02-13T10:32:40.369Z,99768.84
2018-02-13T10:35:07.941Z,99763.17
2018-02-13T10:37:35.506Z,99758.06
2018-02-13T10:40:03.083Z,99750.27
2018-02-13T10:42:30.732Z,99735.97
2018-02-13T10:44:58.387Z,99727.01
2018-02-13T10:47:26.005Z,99731.80
2018-02-13T10:49:53.632Z,99728.91
2018-02-13T10:52:21.277Z,99732.55
2018-02-13T10:54:48.850Z,99730.48
2018-02-13T10:57:16.485Z,99731.14
2018-02-13T10:59:44.054Z,99723.16
2018-02-13T11:02:17.258Z,99721.55
2018-02-13T11:04:44.822Z,99721.86
2018-02-13T11:07:12.442Z,99723.72
2018-02-13T11:09:40.019Z,99719.62
2018-02-13T11:12:07.584Z,99706.56
2018-02-13T11:14:35.197Z,99704.73
2018-02-13T11:17:02.808Z,99698.18
2018-02-13T11:19:30.397Z,99698.02
2018-02-13T11:21:57.977Z,99694.70
2018-02-13T11:24:25.602Z,99693.00
2018-02-13T11:26:53.239Z,99693.34
2018-02-13T11:29:20.813Z,99689.45
2018-02-13T11:31:48.434Z,99681.63
2018-02-13T11:34:16.003Z,99680.90
2018-02-13T11:36:43.571Z,99685.07
2018-02-13T11:39:11.206Z,99679.77
2018-02-13T11:41:38.742Z,99681.78
2018-02-13T11:44:06.314Z,99677.22
2018-02-13T11:46:33.891Z,99674.64
2018-02-13T11:49:01.577Z,99666.27
2018-02-13T11:51:29.212Z,99656.05
2018-02-13T11:53:56.823Z,99655.77
2018-02-13T11:56:24.453Z,99642.95
2018-02-13T11:58:52.023Z,99640.02
2018-02-13T12:01:19.666Z,99623.16
2018-02-13T12:03:47.235Z,99625.45
2018-02-13T12:06:14.871Z,99625.88
2018-02-13T12:08:42.445Z,99631.25
2018-02-13T12:11:10.034Z,99625.75
2018-02-13T12:13:37.666Z,99635.96
2018-02-13T12:16:05.227Z,99636.48
2018-02-13T12:18:33.003Z,99641.78
2018-02-13T12:21:01.389Z,99637.92
2018-02-13T12:23:28.958Z,99626.38
2018-02-13T12:25:56.542Z,99620.63
2018-02-13T12:28:24.197Z,99620.10
2018-02-13T12:30:51.800Z,99612.23
2018-02-13T12:33:19.425Z,99611.47
2018-02-13T12:35:46.993Z,99611.15
2018-02-13T12:38:14.572Z,99603.83
2018-02-13T12:40:42.139Z,99606.93
2018-02-13T12:43:09.850Z,99612.95
2018-02-13T12:45:37.427Z,99609.30
2018-02-13T12:48:05.065Z,99600.60
2018-02-13T12:50:32.658Z,99591.59
2018-02-13T12:53:00.222Z,99595.48
2018-02-13T12:55:27.803Z,99594.38
2018-02-13T12:57:55.445Z,99590.19
2018-02-13T13:00:23.162Z,99593.27
2018-02-13T13:02:50.843Z,99591.17
2018-02-13T13:05:18.444Z,99583.83
2018-02-13T13:07:46.022Z,99591.88
2018-02-13T13:10:14.266Z,99587.76
2018-02-13T13:12:41.897Z,99590.95
2018-02-13T13:15:09.454Z,99578.86
2018-02-13T13:17:37.548Z,99586.12
2018-02-13T13:20:06.028Z,99581.14
2018-02-13T13:22:33.652Z,99585.84
2018-02-13T13:25:01.338Z,99582.03
2018-02-13T13:27:28.906Z,99576.80
2018-02-13T13:29:56.531Z,99570.66
2018-02-13T13:32:24.196Z,99564.94
2018-02-13T13:34:51.842Z,99556.15
2018-02-13T13:37:19.419Z,99563.22
2018-02-13T13:39:46.985Z,99553.20
2018-02-13T13:42:14.618Z,99551.52
2018-02-13T13:44:42.242Z,99552.48
2018-02-13T13:47:09.827Z,99542.89
2018-02-13T13:49:38.046Z,99549.33
2018-02-13T13:52:05.762Z,99554.61
2018-02-13T13:54:33.307Z,99550.34
2018-02-13T13:57:00.879Z,99556.73
2018-02-13T13:59:28.507Z,99560.56
2018-02-13T14:01:56.660Z,99557.97
2018-02-13T14:04:24.346Z,99567.94
2018-02-13T14:06:52.870Z,99552.64
2018-02-13T14:09:21.241Z,99544.63
2018-02-13T14:11:48.837Z,99558.31
2018-02-13T14:14:18.206Z,99557.86
2018-02-13T14:16:45.926Z,99558.37
2018-02-13T14:19:13.530Z,99555.42
2018-02-13T14:21:42.945Z,99557.19
2018-02-13T14:24:10.595Z,99560.21
2018-02-13T14:26:38.173Z,99558.17
2018-02-13T14:29:05.858Z,99544.34
2018-02-13T14:31:33.426Z,99542.94
2018-02-13T14:34:01.057Z,99538.37
2018-02-13T14:36:28.702Z,99531.05
2018-02-13T14:38:56.412Z,99541.25
2018-02-13T14:41:24.113Z,99535.67
2018-02-13T14:43:51.749Z,99536.59
2018-02-13T14:46:19.311Z,99537.63
2018-02-13T14:48:46.877Z,99534.28
2018-02-13T14:51:15.152Z,99528.42
2018-02-13T14:53:42.765Z,99523.09
2018-02-13T14:56:10.325Z,99522.02
2018-02-13T14:58:37.902Z,99520.37
2018-02-13T15:01:05.490Z,99525.74
2018-02-13T15:03:33.667Z,99530.50
2018-02-13T15:06:01.309Z,99527.98
2018-02-13T15:08:29.878Z,99527.66
2018-02-13T15:10:57.575Z,99522.58
2018-02-13T15:13:25.409Z,99529.92
2018-02-13T15:15:53.014Z,99521.00
2018-02-13T15:18:26.105Z,99521.83
2018-02-13T15:20:53.670Z,99522.15
2018-02-13T15:23:21.238Z,99522.81
2018-02-13T15:25:48.797Z,99519.63
2018-02-13T15:28:20.055Z,99507.94
2018-02-13T15:30:47.711Z,99513.52
2018-02-13T15:33:16.089Z,99520.44
2018-02-13T15:35:43.719Z,99503.64
2018-02-13T15:38:11.274Z,99510.91
2018-02-13T15:40:38.845Z,99506.38
2018-02-13T15:43:06.702Z,99500.95
2018-02-13T15:45:34.359Z,99497.20
2018-02-13T15:48:02.010Z,99505.61
2018-02-13T15:50:29.626Z,99502.79
2018-02-13T15:52:57.213Z,99491.27
2018-02-13T15:55:24.771Z,99498.50
2018-02-13T15:57:53.109Z,99501.99
2018-02-13T16:00:20.734Z,99494.64
2018-02-13T16:02:48.403Z,99491.22
2018-02-13T16:05:15.970Z,99484.49
2018-02-13T16:07:44.319Z,99489.79
2018-02-13T16:12:53.710Z,99490.95
2018-02-13T16:15:21.472Z,99494.24
2018-02-13T16:17:49.103Z,99495.83
2018-02-13T16:20:16.814Z,99495.42
2018-02-13T16:22:45.162Z,99502.83
2018-02-13T16:25:12.735Z,99504.02
2018-02-13T16:27:41.181Z,99506.52
2018-02-13T16:30:08.774Z,99506.02
2018-02-13T16:32:37.086Z,99501.09
2018-02-13T16:35:05.660Z,99495.24
2018-02-13T16:37:34.210Z,99493.74
2018-02-13T16:40:01.824Z,99490.98
2018-02-13T16:42:29.448Z,99483.02
2018-02-13T16:44:57.617Z,99488.95
2018-02-13T16:47:25.201Z,99486.70
2018-02-13T16:49:52.786Z,99484.38
2018-02-13T16:52:21.195Z,99484.61
2018-02-13T16:54:48.813Z,99481.94
2018-02-13T16:57:16.373Z,99481.36
2018-02-13T16:59:44.913Z,99494.05
2018-02-13T17:02:13.364Z,99488.61
2018-02-13T17:04:40.995Z,99483.66
2018-02-13T17:07:08.634Z,99476.23
2018-02-13T17:09:36.210Z,99479.33
2018-02-13T17:12:03.886Z,99480.29
2018-02-13T17:14:31.463Z,99473.35
2018-02-13T17:16:59.030Z,99471.18
2018-02-13T17:19:26.700Z,99474.20
2018-02-13T17:21:54.323Z,99468.11
2018-02-13T17:24:21.921Z,99462.58
2018-02-13T17:26:50.506Z,99459.41
2018-02-13T17:29:18.139Z,99454.15
2018-02-13T17:31:45.763Z,99454.50
2018-02-13T17:34:13.320Z,99447.90
2018-02-13T17:36:41.273Z,99453.09
2018-02-13T17:39:08.898Z,99447.40
2018-02-13T17:41:37.363Z,99443.74
2018-02-13T17:44:05.794Z,99439.80
2018-02-13T17:46:33.394Z,99438.22
2018-02-13T17:49:00.950Z,99436.47
2018-02-13T17:51:28.514Z,99436.91
2018-02-13T17:53:56.126Z,99441.66
2018-02-13T17:56:23.692Z,99445.42
2018-02-13T17:58:51.950Z,99441.50
2018-02-13T18:01:19.579Z,99433.47
2018-02-13T18:03:47.274Z,99440.30
2018-02-13T18:06:14.873Z,99435.53
2018-02-13T18:08:42.443Z,99433.41
2018-02-13T18:11:10.000Z,99431.71
2018-02-13T18:13:38.445Z,99429.98
2018-02-13T18:16:06.018Z,99432.34
2018-02-13T18:18:33.581Z,99420.72
2018-02-13T18:21:01.219Z,99420.41
2018-02-13T18:23:28.782Z,99420.27
2018-02-13T18:25:56.986Z,99412.31
2018-02-13T18:28:24.648Z,99412.75
2018-02-13T18:30:52.381Z,99419.52
2018-02-13T18:33:20.013Z,99414.35
2018-02-13T18:35:47.592Z,99420.44
2018-02-13T18:38:15.278Z,99415.26
2018-02-13T18:40:42.844Z,99419.61
2018-02-13T18:43:10.472Z,99413.78
2018-02-13T18:45:38.123Z,99410.01
2018-02-13T18:48:05.693Z,99407.84
2018-02-13T18:50:33.307Z,99410.52
2018-02-13T18:55:28.512Z,99401.91
2018-02-13T18:57:56.147Z,99400.71
2018-02-13T19:00:23.697Z,99402.72
2018-02-13T19:02:51.269Z,99394.88
2018-02-13T19:05:18.837Z,99400.91
2018-02-13T19:07:46.481Z,99387.19
2018-02-13T19:10:14.049Z,99386.28
2018-02-13T19:12:41.676Z,99385.09
2018-02-13T19:15:09.269Z,99387.17
2018-02-13T19:17:36.829Z,99391.70
2018-02-13T19:20:04.483Z,99389.36
2018-02-13T19:22:32.111Z,99386.25
2018-02-13T19:24:59.688Z,99381.26
2018-02-13T19:27:27.244Z,99380.75
2018-02-13T19:29:54.898Z,99380.01
2018-02-13T19:32:23.700Z,99374.15
2018-02-13T19:34:51.287Z,99378.16
2018-02-13T19:37:18.956Z,99373.83
2018-02-13T19:39:46.529Z,99373.17
2018-02-13T19:42:14.230Z,99370.23
2018-02-13T19:44:42.755Z,99370.91
2018-02-13T19:47:10.317Z,99369.42
2018-02-13T19:49:37.910Z,99361.80
2018-02-13T19:52:05.503Z,99360.73
2018-02-13T19:54:33.111Z,99357.54
2018-02-13T19:57:00.741Z,99355.22
2018-02-13T19:59:28.400Z,99359.98
2018-02-13T20:01:56.004Z,99354.88
2018-02-13T20:04:23.681Z,99350.71
2018-02-13T20:06:51.254Z,99348.62
2018-02-13T20:09:18.917Z,99345.70
2018-02-13T20:11:46.502Z,99344.53
2018-02-13T20:14:14.082Z,99339.25
2018-02-13T20:16:41.701Z,99338.67
2018-02-13T20:19:09.271Z,99325.83
2018-02-13T20:21:36.848Z,99311.21
2018-02-13T20:24:04.439Z,99319.06
2018-02-13T20:26:32.026Z,99310.13
2018-02-13T20:28:59.654Z,99308.94
2018-02-13T20:31:27.234Z,99304.84
2018-02-13T20:33:54.879Z,99288.75
2018-02-13T20:36:22.454Z,99296.35
2018-02-13T20:38:50.039Z,99298.86
2018-02-13T20:41:17.654Z,99297.75
2018-02-13T20:43:45.227Z,99293.58
2018-02-13T20:46:12.794Z,99285.81
2018-02-13T20:48:40.377Z,99286.42
2018-02-13T20:51:08.160Z,99280.66
2018-02-13T20:53:35.804Z,99276.31
2018-02-13T20:56:03.385Z,99282.06
2018-02-13T20:58:30.966Z,99281.16
2018-02-13T21:00:58.568Z,99274.81
2018-02-13T21:03:26.142Z,99272.05
2018-02-13T21:05:53.774Z,99263.97
2018-02-13T21:08:21.463Z,99264.86
2018-02-13T21:10:49.039Z,99267.95
2018-02-13T21:13:16.605Z,99262.61
2018-02-13T21:15:44.178Z,99259.77
2018-02-13T21:18:11.811Z,99265.86
2018-02-13T21:20:39.446Z,99267.04
2018-02-13T21:23:07.009Z,99268.05
2018-02-13T21:25:34.603Z,99261.42
2018-02-13T21:28:02.179Z,99259.76
2018-02-13T21:30:29.810Z,99250.58
2018-02-13T21:32:57.382Z,99250.74
2018-02-13T21:35:25.014Z,99251.16
2018-02-13T21:37:52.661Z,99254.58
2018-02-13T21:40:20.237Z,99243.95
2018-02-13T21:42:47.821Z,99240.27
2018-02-13T21:45:15.396Z,99234.52
2018-02-13T21:47:43.024Z,99228.00
2018-02-13T21:50:10.610Z,99230.84
2018-02-13T21:52:38.174Z,99230.89
2018-02-13T21:55:05.806Z,99228.39
2018-02-13T21:57:33.374Z,99226.75
2018-02-13T22:00:01.007Z,99228.83
2018-02-13T22:02:28.579Z,99229.22
2018-02-13T22:04:56.151Z,99226.80
2018-02-13T22:07:23.731Z,99222.87
2018-02-13T22:09:51.294Z,99210.76
2018-02-13T22:12:18.912Z,99220.70
2018-02-13T22:14:46.543Z,99214.16
2018-02-13T22:17:14.115Z,99202.63
2018-02-13T22:19:41.686Z,99203.08
2018-02-13T22:22:09.255Z,99200.12
2018-02-13T22:24:36.920Z,99197.86
2018-02-13T22:27:04.480Z,99203.45
2018-02-13T22:29:32.050Z,99191.06
2018-02-13T22:31:59.619Z,99196.23
2018-02-13T22:34:27.178Z,99189.72
2018-02-13T22:36:54.850Z,99180.19
2018-02-13T22:39:22.397Z,99166.36
2018-02-13T22:41:49.937Z,99162.05
2018-02-13T22:44:17.542Z,99168.33
2018-02-13T22:46:45.103Z,99155.71
2018-02-13T22:49:12.735Z,99166.53
2018-02-13T22:51:40.304Z,99164.86
2018-02-13T22:54:08.013Z,99167.28
2018-02-13T22:56:35.639Z,99156.45
2018-02-13T22:59:03.206Z,99159.17
2018-02-13T23:01:30.782Z,99159.62
2018-02-13T23:03:58.350Z,99156.60
2018-02-13T23:06:25.930Z,99155.05
2018-02-13T23:08:53.497Z,99150.36
2018-02-13T23:11:21.115Z,99137.51
2018-02-13T23:13:48.751Z,99134.86
2018-02-13T23:16:16.322Z,99135.38
2018-02-13T23:18:43.893Z,99137.30
2018-02-13T23:21:11.453Z,99131.30
2018-02-13T23:23:39.031Z,99131.44
2018-02-13T23:26:06.590Z,99129.88
2018-02-13T23:28:34.281Z,99131.21
2018-02-13T23:31:01.914Z,99142.94
2018-02-13T23:33:29.530Z,99136.70
2018-02-13T23:35:57.109Z,99142.92
2018-02-13T23:38:24.732Z,99142.40
2018-02-13T23:40:52.305Z,99143.03
2018-02-13T23:43:19.865Z,99145.02
2018-02-13T23:45:47.491Z,99142.17
2018-02-13T23:48:15.051Z,99139.47
2018-02-13T23:50:42.639Z,99136.11
2018-02-13T23:53:10.274Z,99135.67
2018-02-13T23:55:37.840Z,99129.94
2018-02-13T23:58:05.413Z,99135.36
